sensor_id;sensor_type;location;lat;lon;timestamp;P1;durP1;ratioP1;P2;durP2;ratioP2
22172;SDS011;11252;50.596;17.648;2023-03-01T00:01:18;232.17;;;107.43;;
22172;SDS011;11252;50.596;17.648;2023-03-01T00:03:48;230.37;;;104.73;;
22172;SDS011;11252;50.596;17.648;2023-03-01T00:06:15;223.93;;;105.47;;
22172;SDS011;11252;50.596;17.648;2023-03-01T00:08:43;229.50;;;109.97;;
22172;SDS011;11252;50.596;17.648;2023-03-01T00:11:15;260.90;;;121.03;;
22172;SDS011;11252;50.596;17.648;2023-03-01T00:13:44;249.63;;;112.30;;
22172;SDS011;11252;50.596;17.648;2023-03-01T00:16:14;259.13;;;117.87;;
22172;SDS011;11252;50.596;17.648;2023-03-01T00:18:45;260.03;;;119.73;;
22172;SDS011;11252;50.596;17.648;2023-03-01T00:21:13;294.33;;;126.00;;
22172;SDS011;11252;50.596;17.648;2023-03-01T00:23:40;312.13;;;127.60;;
22172;SDS011;11252;50.596;17.648;2023-03-01T00:26:10;321.47;;;130.10;;
22172;SDS011;11252;50.596;17.648;2023-03-01T00:28:39;299.90;;;126.93;;
22172;SDS011;11252;50.596;17.648;2023-03-01T00:31:09;345.83;;;138.30;;
22172;SDS011;11252;50.596;17.648;2023-03-01T00:33:41;321.37;;;130.80;;
22172;SDS011;11252;50.596;17.648;2023-03-01T00:36:10;316.03;;;124.63;;
22172;SDS011;11252;50.596;17.648;2023-03-01T00:38:39;274.70;;;118.03;;
22172;SDS011;11252;50.596;17.648;2023-03-01T00:41:10;280.70;;;115.67;;
22172;SDS011;11252;50.596;17.648;2023-03-01T00:43:38;287.93;;;122.93;;
22172;SDS011;11252;50.596;17.648;2023-03-01T00:46:07;267.93;;;112.73;;
22172;SDS011;11252;50.596;17.648;2023-03-01T00:48:36;259.37;;;113.47;;
22172;SDS011;11252;50.596;17.648;2023-03-01T00:51:07;266.80;;;109.97;;
22172;SDS011;11252;50.596;17.648;2023-03-01T00:53:36;250.40;;;111.23;;
22172;SDS011;11252;50.596;17.648;2023-03-01T00:56:04;241.27;;;104.70;;
22172;SDS011;11252;50.596;17.648;2023-03-01T00:58:34;248.97;;;104.03;;
22172;SDS011;11252;50.596;17.648;2023-03-01T01:01:11;259.43;;;106.40;;
22172;SDS011;11252;50.596;17.648;2023-03-01T01:03:49;244.60;;;106.20;;
22172;SDS011;11252;50.596;17.648;2023-03-01T01:06:20;232.70;;;101.13;;
22172;SDS011;11252;50.596;17.648;2023-03-01T01:08:50;191.27;;;88.37;;
22172;SDS011;11252;50.596;17.648;2023-03-01T01:11:19;227.33;;;101.27;;
22172;SDS011;11252;50.596;17.648;2023-03-01T01:13:47;212.97;;;100.13;;
22172;SDS011;11252;50.596;17.648;2023-03-01T01:16:17;262.87;;;109.77;;
22172;SDS011;11252;50.596;17.648;2023-03-01T01:18:45;270.90;;;113.53;;
22172;SDS011;11252;50.596;17.648;2023-03-01T01:21:14;267.20;;;111.60;;
22172;SDS011;11252;50.596;17.648;2023-03-01T01:23:44;264.70;;;111.87;;
22172;SDS011;11252;50.596;17.648;2023-03-01T01:26:14;243.87;;;106.13;;
22172;SDS011;11252;50.596;17.648;2023-03-01T01:28:46;272.40;;;117.20;;
22172;SDS011;11252;50.596;17.648;2023-03-01T01:31:14;210.77;;;93.80;;
22172;SDS011;11252;50.596;17.648;2023-03-01T01:33:41;205.70;;;90.63;;
22172;SDS011;11252;50.596;17.648;2023-03-01T01:36:09;234.50;;;98.27;;
22172;SDS011;11252;50.596;17.648;2023-03-01T01:38:37;217.17;;;95.83;;
22172;SDS011;11252;50.596;17.648;2023-03-01T01:41:05;220.70;;;96.80;;
22172;SDS011;11252;50.596;17.648;2023-03-01T01:43:35;228.97;;;98.23;;
22172;SDS011;11252;50.596;17.648;2023-03-01T01:46:12;215.00;;;94.87;;
22172;SDS011;11252;50.596;17.648;2023-03-01T01:48:48;228.10;;;97.67;;
22172;SDS011;11252;50.596;17.648;2023-03-01T01:51:21;227.50;;;104.87;;
22172;SDS011;11252;50.596;17.648;2023-03-01T01:53:55;233.83;;;100.50;;
22172;SDS011;11252;50.596;17.648;2023-03-01T01:56:27;232.63;;;104.90;;
22172;SDS011;11252;50.596;17.648;2023-03-01T01:58:57;226.00;;;100.90;;
22172;SDS011;11252;50.596;17.648;2023-03-01T02:01:24;192.77;;;89.63;;
22172;SDS011;11252;50.596;17.648;2023-03-01T02:03:52;187.90;;;86.63;;
22172;SDS011;11252;50.596;17.648;2023-03-01T02:09:00;170.47;;;79.60;;
22172;SDS011;11252;50.596;17.648;2023-03-01T02:11:31;159.50;;;81.37;;
22172;SDS011;11252;50.596;17.648;2023-03-01T02:14:00;185.97;;;94.70;;
22172;SDS011;11252;50.596;17.648;2023-03-01T02:16:27;195.30;;;99.87;;
22172;SDS011;11252;50.596;17.648;2023-03-01T02:18:56;182.90;;;94.43;;
22172;SDS011;11252;50.596;17.648;2023-03-01T02:21:35;166.83;;;85.73;;
22172;SDS011;11252;50.596;17.648;2023-03-01T02:26:48;147.10;;;75.37;;
22172;SDS011;11252;50.596;17.648;2023-03-01T02:29:19;133.97;;;68.47;;
22172;SDS011;11252;50.596;17.648;2023-03-01T02:31:48;116.80;;;58.13;;
22172;SDS011;11252;50.596;17.648;2023-03-01T02:34:22;121.37;;;59.47;;
22172;SDS011;11252;50.596;17.648;2023-03-01T02:36:59;108.40;;;56.77;;
22172;SDS011;11252;50.596;17.648;2023-03-01T02:39:43;120.37;;;59.23;;
22172;SDS011;11252;50.596;17.648;2023-03-01T02:42:14;120.83;;;60.27;;
22172;SDS011;11252;50.596;17.648;2023-03-01T02:44:48;111.23;;;59.03;;
22172;SDS011;11252;50.596;17.648;2023-03-01T02:47:16;113.20;;;57.63;;
22172;SDS011;11252;50.596;17.648;2023-03-01T02:49:43;112.90;;;57.97;;
22172;SDS011;11252;50.596;17.648;2023-03-01T02:54:59;106.00;;;54.63;;
22172;SDS011;11252;50.596;17.648;2023-03-01T02:57:40;128.33;;;61.40;;
22172;SDS011;11252;50.596;17.648;2023-03-01T03:00:11;111.70;;;55.00;;
22172;SDS011;11252;50.596;17.648;2023-03-01T03:02:48;119.07;;;57.37;;
22172;SDS011;11252;50.596;17.648;2023-03-01T03:05:18;125.57;;;60.53;;
22172;SDS011;11252;50.596;17.648;2023-03-01T03:07:48;129.60;;;60.53;;
22172;SDS011;11252;50.596;17.648;2023-03-01T03:10:18;119.50;;;56.90;;
22172;SDS011;11252;50.596;17.648;2023-03-01T03:12:50;126.30;;;56.43;;
22172;SDS011;11252;50.596;17.648;2023-03-01T03:15:20;120.83;;;55.60;;
22172;SDS011;11252;50.596;17.648;2023-03-01T03:17:48;114.90;;;56.53;;
22172;SDS011;11252;50.596;17.648;2023-03-01T03:20:16;115.90;;;56.13;;
22172;SDS011;11252;50.596;17.648;2023-03-01T03:22:46;114.17;;;58.00;;
22172;SDS011;11252;50.596;17.648;2023-03-01T03:25:16;122.53;;;58.73;;
22172;SDS011;11252;50.596;17.648;2023-03-01T03:27:44;116.00;;;56.23;;
22172;SDS011;11252;50.596;17.648;2023-03-01T03:30:15;114.53;;;54.67;;
22172;SDS011;11252;50.596;17.648;2023-03-01T03:32:44;112.83;;;53.50;;
22172;SDS011;11252;50.596;17.648;2023-03-01T03:35:23;124.43;;;56.67;;
22172;SDS011;11252;50.596;17.648;2023-03-01T03:37:59;121.50;;;56.70;;
22172;SDS011;11252;50.596;17.648;2023-03-01T03:40:34;113.50;;;56.60;;
22172;SDS011;11252;50.596;17.648;2023-03-01T03:43:07;113.60;;;58.00;;
22172;SDS011;11252;50.596;17.648;2023-03-01T03:45:39;111.40;;;55.40;;
22172;SDS011;11252;50.596;17.648;2023-03-01T03:48:08;122.80;;;58.03;;
22172;SDS011;11252;50.596;17.648;2023-03-01T03:50:37;120.27;;;57.20;;
22172;SDS011;11252;50.596;17.648;2023-03-01T03:53:09;110.83;;;56.70;;
22172;SDS011;11252;50.596;17.648;2023-03-01T03:55:38;129.53;;;64.70;;
22172;SDS011;11252;50.596;17.648;2023-03-01T03:58:08;123.83;;;61.60;;
22172;SDS011;11252;50.596;17.648;2023-03-01T04:00:38;109.60;;;58.20;;
22172;SDS011;11252;50.596;17.648;2023-03-01T04:03:10;118.83;;;58.10;;
22172;SDS011;11252;50.596;17.648;2023-03-01T04:05:40;121.70;;;60.00;;
22172;SDS011;11252;50.596;17.648;2023-03-01T04:08:08;118.70;;;57.37;;
22172;SDS011;11252;50.596;17.648;2023-03-01T04:10:40;112.50;;;55.70;;
22172;SDS011;11252;50.596;17.648;2023-03-01T04:13:13;117.53;;;61.20;;
22172;SDS011;11252;50.596;17.648;2023-03-01T04:15:43;109.17;;;56.80;;
22172;SDS011;11252;50.596;17.648;2023-03-01T04:18:12;107.33;;;55.33;;
22172;SDS011;11252;50.596;17.648;2023-03-01T04:20:41;114.00;;;57.47;;
22172;SDS011;11252;50.596;17.648;2023-03-01T04:23:10;112.33;;;60.10;;
22172;SDS011;11252;50.596;17.648;2023-03-01T04:25:45;112.77;;;57.03;;
22172;SDS011;11252;50.596;17.648;2023-03-01T04:28:13;104.77;;;53.67;;
22172;SDS011;11252;50.596;17.648;2023-03-01T04:30:40;107.23;;;52.23;;
22172;SDS011;11252;50.596;17.648;2023-03-01T04:33:10;120.67;;;58.07;;
22172;SDS011;11252;50.596;17.648;2023-03-01T04:35:38;99.50;;;52.73;;
22172;SDS011;11252;50.596;17.648;2023-03-01T04:38:07;105.90;;;53.87;;
22172;SDS011;11252;50.596;17.648;2023-03-01T04:40:35;114.13;;;55.47;;
22172;SDS011;11252;50.596;17.648;2023-03-01T04:43:03;114.93;;;58.30;;
22172;SDS011;11252;50.596;17.648;2023-03-01T04:45:31;128.07;;;59.30;;
22172;SDS011;11252;50.596;17.648;2023-03-01T04:48:01;125.10;;;60.03;;
22172;SDS011;11252;50.596;17.648;2023-03-01T04:50:29;121.40;;;58.33;;
22172;SDS011;11252;50.596;17.648;2023-03-01T04:52:56;107.00;;;53.57;;
22172;SDS011;11252;50.596;17.648;2023-03-01T04:55:27;108.87;;;54.43;;
22172;SDS011;11252;50.596;17.648;2023-03-01T04:57:55;108.07;;;54.80;;
22172;SDS011;11252;50.596;17.648;2023-03-01T05:00:23;113.37;;;60.63;;
22172;SDS011;11252;50.596;17.648;2023-03-01T05:02:52;130.20;;;66.53;;
22172;SDS011;11252;50.596;17.648;2023-03-01T05:05:30;131.70;;;66.97;;
22172;SDS011;11252;50.596;17.648;2023-03-01T05:08:03;141.37;;;74.93;;
22172;SDS011;11252;50.596;17.648;2023-03-01T05:10:33;138.47;;;70.90;;
22172;SDS011;11252;50.596;17.648;2023-03-01T05:13:02;136.33;;;71.67;;
22172;SDS011;11252;50.596;17.648;2023-03-01T05:15:31;134.40;;;71.77;;
22172;SDS011;11252;50.596;17.648;2023-03-01T05:17:59;135.10;;;67.17;;
22172;SDS011;11252;50.596;17.648;2023-03-01T05:20:28;129.90;;;64.73;;
22172;SDS011;11252;50.596;17.648;2023-03-01T05:22:57;121.70;;;61.50;;
22172;SDS011;11252;50.596;17.648;2023-03-01T05:25:26;122.83;;;61.07;;
22172;SDS011;11252;50.596;17.648;2023-03-01T05:27:54;106.30;;;54.53;;
22172;SDS011;11252;50.596;17.648;2023-03-01T05:30:21;106.17;;;56.13;;
22172;SDS011;11252;50.596;17.648;2023-03-01T05:32:50;112.27;;;55.47;;
22172;SDS011;11252;50.596;17.648;2023-03-01T05:35:22;118.13;;;57.07;;
22172;SDS011;11252;50.596;17.648;2023-03-01T05:37:50;117.90;;;58.67;;
22172;SDS011;11252;50.596;17.648;2023-03-01T05:40:19;107.87;;;57.10;;
22172;SDS011;11252;50.596;17.648;2023-03-01T05:42:49;128.00;;;61.53;;
22172;SDS011;11252;50.596;17.648;2023-03-01T05:45:20;126.53;;;64.13;;
22172;SDS011;11252;50.596;17.648;2023-03-01T05:47:49;125.90;;;63.10;;
22172;SDS011;11252;50.596;17.648;2023-03-01T05:50:24;122.73;;;62.33;;
22172;SDS011;11252;50.596;17.648;2023-03-01T05:52:57;114.73;;;60.20;;
22172;SDS011;11252;50.596;17.648;2023-03-01T05:55:32;119.60;;;59.97;;
22172;SDS011;11252;50.596;17.648;2023-03-01T05:58:01;114.77;;;59.77;;
22172;SDS011;11252;50.596;17.648;2023-03-01T06:00:32;114.27;;;59.47;;
22172;SDS011;11252;50.596;17.648;2023-03-01T06:03:00;118.67;;;58.63;;
22172;SDS011;11252;50.596;17.648;2023-03-01T06:05:28;118.30;;;61.67;;
22172;SDS011;11252;50.596;17.648;2023-03-01T06:08:00;123.53;;;63.83;;
22172;SDS011;11252;50.596;17.648;2023-03-01T06:10:28;117.07;;;62.60;;
22172;SDS011;11252;50.596;17.648;2023-03-01T06:12:56;125.10;;;62.63;;
22172;SDS011;11252;50.596;17.648;2023-03-01T06:15:25;116.17;;;61.67;;
22172;SDS011;11252;50.596;17.648;2023-03-01T06:17:53;114.57;;;61.47;;
22172;SDS011;11252;50.596;17.648;2023-03-01T06:20:26;117.73;;;62.67;;
22172;SDS011;11252;50.596;17.648;2023-03-01T06:22:54;116.13;;;60.63;;
22172;SDS011;11252;50.596;17.648;2023-03-01T06:25:22;138.20;;;71.73;;
22172;SDS011;11252;50.596;17.648;2023-03-01T06:27:51;132.60;;;69.90;;
22172;SDS011;11252;50.596;17.648;2023-03-01T06:30:20;138.63;;;71.00;;
22172;SDS011;11252;50.596;17.648;2023-03-01T06:32:49;131.27;;;69.97;;
22172;SDS011;11252;50.596;17.648;2023-03-01T06:35:17;144.23;;;73.70;;
22172;SDS011;11252;50.596;17.648;2023-03-01T06:37:46;138.37;;;72.27;;
22172;SDS011;11252;50.596;17.648;2023-03-01T06:40:14;130.40;;;70.13;;
22172;SDS011;11252;50.596;17.648;2023-03-01T06:42:43;135.50;;;69.23;;
22172;SDS011;11252;50.596;17.648;2023-03-01T06:45:16;129.40;;;66.10;;
22172;SDS011;11252;50.596;17.648;2023-03-01T06:47:45;121.07;;;62.27;;
22172;SDS011;11252;50.596;17.648;2023-03-01T06:50:12;116.17;;;60.20;;
22172;SDS011;11252;50.596;17.648;2023-03-01T06:52:41;117.20;;;62.63;;
22172;SDS011;11252;50.596;17.648;2023-03-01T06:55:11;111.37;;;59.03;;
22172;SDS011;11252;50.596;17.648;2023-03-01T06:57:39;107.83;;;58.50;;
22172;SDS011;11252;50.596;17.648;2023-03-01T07:00:06;160.90;;;84.50;;
22172;SDS011;11252;50.596;17.648;2023-03-01T07:02:34;111.80;;;60.60;;
22172;SDS011;11252;50.596;17.648;2023-03-01T07:05:05;104.17;;;56.13;;
22172;SDS011;11252;50.596;17.648;2023-03-01T07:07:32;100.80;;;52.30;;
22172;SDS011;11252;50.596;17.648;2023-03-01T07:10:00;99.93;;;50.27;;
22172;SDS011;11252;50.596;17.648;2023-03-01T07:12:28;91.17;;;50.03;;
22172;SDS011;11252;50.596;17.648;2023-03-01T07:14:55;87.20;;;50.03;;
22172;SDS011;11252;50.596;17.648;2023-03-01T07:17:23;85.67;;;49.60;;
22172;SDS011;11252;50.596;17.648;2023-03-01T07:19:50;93.50;;;52.53;;
22172;SDS011;11252;50.596;17.648;2023-03-01T07:22:18;98.07;;;51.13;;
22172;SDS011;11252;50.596;17.648;2023-03-01T07:24:45;90.80;;;50.87;;
22172;SDS011;11252;50.596;17.648;2023-03-01T07:27:13;88.40;;;49.93;;
22172;SDS011;11252;50.596;17.648;2023-03-01T07:29:40;88.90;;;50.83;;
22172;SDS011;11252;50.596;17.648;2023-03-01T07:32:08;97.03;;;54.60;;
22172;SDS011;11252;50.596;17.648;2023-03-01T07:34:36;93.13;;;52.40;;
22172;SDS011;11252;50.596;17.648;2023-03-01T07:37:04;97.57;;;55.30;;
22172;SDS011;11252;50.596;17.648;2023-03-01T07:39:31;97.17;;;56.23;;
22172;SDS011;11252;50.596;17.648;2023-03-01T07:41:58;95.13;;;52.03;;
22172;SDS011;11252;50.596;17.648;2023-03-01T07:44:26;89.00;;;51.23;;
22172;SDS011;11252;50.596;17.648;2023-03-01T07:46:54;90.57;;;51.33;;
22172;SDS011;11252;50.596;17.648;2023-03-01T07:49:24;84.43;;;49.00;;
22172;SDS011;11252;50.596;17.648;2023-03-01T07:51:52;83.90;;;48.10;;
22172;SDS011;11252;50.596;17.648;2023-03-01T07:54:20;86.80;;;49.40;;
22172;SDS011;11252;50.596;17.648;2023-03-01T07:56:48;85.03;;;48.57;;
22172;SDS011;11252;50.596;17.648;2023-03-01T07:59:15;80.57;;;46.17;;
22172;SDS011;11252;50.596;17.648;2023-03-01T08:01:42;86.77;;;47.63;;
22172;SDS011;11252;50.596;17.648;2023-03-01T08:04:10;80.70;;;47.07;;
22172;SDS011;11252;50.596;17.648;2023-03-01T08:06:37;82.13;;;44.00;;
22172;SDS011;11252;50.596;17.648;2023-03-01T08:09:05;86.33;;;52.27;;
22172;SDS011;11252;50.596;17.648;2023-03-01T08:11:33;82.90;;;49.43;;
22172;SDS011;11252;50.596;17.648;2023-03-01T08:14:00;88.63;;;53.13;;
22172;SDS011;11252;50.596;17.648;2023-03-01T08:16:28;87.43;;;51.87;;
22172;SDS011;11252;50.596;17.648;2023-03-01T08:18:56;88.23;;;52.03;;
22172;SDS011;11252;50.596;17.648;2023-03-01T08:21:27;90.47;;;54.43;;
22172;SDS011;11252;50.596;17.648;2023-03-01T08:23:54;86.00;;;53.23;;
22172;SDS011;11252;50.596;17.648;2023-03-01T08:26:22;88.43;;;54.97;;
22172;SDS011;11252;50.596;17.648;2023-03-01T08:28:49;94.63;;;55.27;;
22172;SDS011;11252;50.596;17.648;2023-03-01T08:31:20;91.43;;;55.33;;
22172;SDS011;11252;50.596;17.648;2023-03-01T08:33:51;94.20;;;55.13;;
22172;SDS011;11252;50.596;17.648;2023-03-01T08:36:26;86.67;;;52.10;;
22172;SDS011;11252;50.596;17.648;2023-03-01T08:38:55;88.27;;;54.77;;
22172;SDS011;11252;50.596;17.648;2023-03-01T08:41:23;85.67;;;54.73;;
22172;SDS011;11252;50.596;17.648;2023-03-01T08:43:51;90.83;;;55.40;;
22172;SDS011;11252;50.596;17.648;2023-03-01T08:46:19;85.23;;;53.23;;
22172;SDS011;11252;50.596;17.648;2023-03-01T08:48:46;85.23;;;54.67;;
22172;SDS011;11252;50.596;17.648;2023-03-01T08:51:16;88.37;;;58.10;;
22172;SDS011;11252;50.596;17.648;2023-03-01T08:53:45;92.37;;;61.73;;
22172;SDS011;11252;50.596;17.648;2023-03-01T08:56:13;90.10;;;60.50;;
22172;SDS011;11252;50.596;17.648;2023-03-01T08:58:43;93.50;;;64.07;;
22172;SDS011;11252;50.596;17.648;2023-03-01T09:01:13;91.30;;;60.80;;
22172;SDS011;11252;50.596;17.648;2023-03-01T09:03:42;82.53;;;55.60;;
22172;SDS011;11252;50.596;17.648;2023-03-01T09:06:10;75.70;;;50.10;;
22172;SDS011;11252;50.596;17.648;2023-03-01T09:08:38;74.70;;;47.57;;
22172;SDS011;11252;50.596;17.648;2023-03-01T09:11:08;67.40;;;46.37;;
22172;SDS011;11252;50.596;17.648;2023-03-01T09:13:37;68.33;;;44.67;;
22172;SDS011;11252;50.596;17.648;2023-03-01T09:16:08;70.53;;;45.97;;
22172;SDS011;11252;50.596;17.648;2023-03-01T09:18:36;61.37;;;42.53;;
22172;SDS011;11252;50.596;17.648;2023-03-01T09:21:04;64.20;;;43.77;;
22172;SDS011;11252;50.596;17.648;2023-03-01T09:23:37;68.53;;;47.50;;
22172;SDS011;11252;50.596;17.648;2023-03-01T09:26:07;76.87;;;51.87;;
22172;SDS011;11252;50.596;17.648;2023-03-01T09:28:36;68.03;;;48.30;;
22172;SDS011;11252;50.596;17.648;2023-03-01T09:31:04;69.43;;;49.43;;
22172;SDS011;11252;50.596;17.648;2023-03-01T09:33:32;69.23;;;50.77;;
22172;SDS011;11252;50.596;17.648;2023-03-01T09:36:04;71.97;;;51.47;;
22172;SDS011;11252;50.596;17.648;2023-03-01T09:38:33;72.97;;;52.83;;
22172;SDS011;11252;50.596;17.648;2023-03-01T09:41:01;70.00;;;50.07;;
22172;SDS011;11252;50.596;17.648;2023-03-01T09:43:48;64.77;;;46.63;;
22172;SDS011;11252;50.596;17.648;2023-03-01T09:46:23;65.20;;;46.37;;
22172;SDS011;11252;50.596;17.648;2023-03-01T09:49:04;64.83;;;45.97;;
22172;SDS011;11252;50.596;17.648;2023-03-01T09:51:38;59.10;;;42.60;;
22172;SDS011;11252;50.596;17.648;2023-03-01T09:54:05;57.23;;;38.73;;
22172;SDS011;11252;50.596;17.648;2023-03-01T09:56:38;50.50;;;37.63;;
22172;SDS011;11252;50.596;17.648;2023-03-01T09:59:55;49.00;;;36.03;;
22172;SDS011;11252;50.596;17.648;2023-03-01T10:02:51;40.60;;;28.27;;
22172;SDS011;11252;50.596;17.648;2023-03-01T10:05:31;35.00;;;25.33;;
22172;SDS011;11252;50.596;17.648;2023-03-01T10:11:12;43.63;;;31.40;;
22172;SDS011;11252;50.596;17.648;2023-03-01T10:13:58;38.73;;;27.77;;
22172;SDS011;11252;50.596;17.648;2023-03-01T10:19:12;31.50;;;24.47;;
22172;SDS011;11252;50.596;17.648;2023-03-01T10:21:46;35.27;;;25.07;;
22172;SDS011;11252;50.596;17.648;2023-03-01T10:24:17;36.47;;;26.97;;
22172;SDS011;11252;50.596;17.648;2023-03-01T10:26:50;32.87;;;23.93;;
22172;SDS011;11252;50.596;17.648;2023-03-01T10:29:28;32.30;;;22.83;;
22172;SDS011;11252;50.596;17.648;2023-03-01T10:32:00;31.97;;;24.67;;
22172;SDS011;11252;50.596;17.648;2023-03-01T10:34:32;32.37;;;24.30;;
22172;SDS011;11252;50.596;17.648;2023-03-01T10:39:36;33.47;;;23.27;;
22172;SDS011;11252;50.596;17.648;2023-03-01T10:42:04;28.50;;;22.13;;
22172;SDS011;11252;50.596;17.648;2023-03-01T10:44:46;30.93;;;23.10;;
22172;SDS011;11252;50.596;17.648;2023-03-01T10:47:16;29.50;;;23.50;;
22172;SDS011;11252;50.596;17.648;2023-03-01T10:49:54;31.87;;;23.73;;
22172;SDS011;11252;50.596;17.648;2023-03-01T10:52:37;31.90;;;24.40;;
22172;SDS011;11252;50.596;17.648;2023-03-01T11:00:49;35.63;;;25.47;;
22172;SDS011;11252;50.596;17.648;2023-03-01T11:03:26;34.17;;;25.90;;
22172;SDS011;11252;50.596;17.648;2023-03-01T11:05:59;39.23;;;26.87;;
22172;SDS011;11252;50.596;17.648;2023-03-01T11:08:36;33.73;;;25.00;;
22172;SDS011;11252;50.596;17.648;2023-03-01T11:14:16;31.23;;;23.40;;
22172;SDS011;11252;50.596;17.648;2023-03-01T11:17:00;34.33;;;23.97;;
22172;SDS011;11252;50.596;17.648;2023-03-01T11:19:32;28.90;;;21.30;;
22172;SDS011;11252;50.596;17.648;2023-03-01T11:22:05;35.07;;;22.37;;
22172;SDS011;11252;50.596;17.648;2023-03-01T11:24:41;28.93;;;21.57;;
22172;SDS011;11252;50.596;17.648;2023-03-01T11:30:07;29.93;;;21.67;;
22172;SDS011;11252;50.596;17.648;2023-03-01T11:32:46;31.70;;;23.23;;
22172;SDS011;11252;50.596;17.648;2023-03-01T11:35:24;29.20;;;21.73;;
22172;SDS011;11252;50.596;17.648;2023-03-01T11:41:05;29.23;;;21.17;;
22172;SDS011;11252;50.596;17.648;2023-03-01T11:43:51;28.07;;;21.37;;
22172;SDS011;11252;50.596;17.648;2023-03-01T11:52:07;30.43;;;23.03;;
22172;SDS011;11252;50.596;17.648;2023-03-01T11:55:42;31.77;;;23.30;;
22172;SDS011;11252;50.596;17.648;2023-03-01T11:58:35;30.47;;;22.47;;
22172;SDS011;11252;50.596;17.648;2023-03-01T12:07:21;24.45;;;20.92;;
22172;SDS011;11252;50.596;17.648;2023-03-01T12:15:56;29.17;;;21.63;;
22172;SDS011;11252;50.596;17.648;2023-03-01T12:19:18;26.17;;;21.50;;
22172;SDS011;11252;50.596;17.648;2023-03-01T12:22:17;26.27;;;21.10;;
22172;SDS011;11252;50.596;17.648;2023-03-01T12:38:36;23.50;;;20.33;;
22172;SDS011;11252;50.596;17.648;2023-03-01T12:41:11;23.17;;;20.67;;
22172;SDS011;11252;50.596;17.648;2023-03-01T12:46:43;26.30;;;19.83;;
22172;SDS011;11252;50.596;17.648;2023-03-01T12:52:35;25.98;;;19.95;;
22172;SDS011;11252;50.596;17.648;2023-03-01T13:00:27;24.00;;;18.27;;
22172;SDS011;11252;50.596;17.648;2023-03-01T13:03:10;21.10;;;17.92;;
22172;SDS011;11252;50.596;17.648;2023-03-01T13:11:17;21.23;;;18.63;;
22172;SDS011;11252;50.596;17.648;2023-03-01T13:13:50;21.88;;;19.45;;
22172;SDS011;11252;50.596;17.648;2023-03-01T13:16:38;20.83;;;18.63;;
22172;SDS011;11252;50.596;17.648;2023-03-01T13:19:13;21.30;;;18.95;;
22172;SDS011;11252;50.596;17.648;2023-03-01T13:21:43;23.73;;;21.13;;
22172;SDS011;11252;50.596;17.648;2023-03-01T13:32:27;26.13;;;20.35;;
22172;SDS011;11252;50.596;17.648;2023-03-01T13:37:45;23.10;;;20.55;;
22172;SDS011;11252;50.596;17.648;2023-03-01T13:42:45;22.03;;;17.80;;
22172;SDS011;11252;50.596;17.648;2023-03-01T13:45:40;24.53;;;18.17;;
22172;SDS011;11252;50.596;17.648;2023-03-01T13:48:11;22.77;;;17.93;;
22172;SDS011;11252;50.596;17.648;2023-03-01T13:50:48;24.88;;;18.20;;
22172;SDS011;11252;50.596;17.648;2023-03-01T13:53:18;25.35;;;18.42;;
22172;SDS011;11252;50.596;17.648;2023-03-01T13:55:56;23.27;;;18.23;;
22172;SDS011;11252;50.596;17.648;2023-03-01T13:58:30;21.33;;;17.45;;
22172;SDS011;11252;50.596;17.648;2023-03-01T14:03:29;21.48;;;18.10;;
22172;SDS011;11252;50.596;17.648;2023-03-01T14:06:03;22.88;;;18.20;;
22172;SDS011;11252;50.596;17.648;2023-03-01T14:08:41;24.58;;;19.63;;
22172;SDS011;11252;50.596;17.648;2023-03-01T14:11:20;25.35;;;18.33;;
22172;SDS011;11252;50.596;17.648;2023-03-01T14:14:29;24.00;;;17.70;;
22172;SDS011;11252;50.596;17.648;2023-03-01T14:22:43;19.15;;;16.27;;
22172;SDS011;11252;50.596;17.648;2023-03-01T14:25:20;21.38;;;18.38;;
22172;SDS011;11252;50.596;17.648;2023-03-01T14:33:18;27.43;;;18.87;;
22172;SDS011;11252;50.596;17.648;2023-03-01T14:35:56;25.33;;;19.33;;
22172;SDS011;11252;50.596;17.648;2023-03-01T14:38:36;24.57;;;18.93;;
22172;SDS011;11252;50.596;17.648;2023-03-01T14:41:22;23.90;;;19.00;;
22172;SDS011;11252;50.596;17.648;2023-03-01T14:43:58;24.87;;;19.00;;
22172;SDS011;11252;50.596;17.648;2023-03-01T14:46:35;21.10;;;18.20;;
22172;SDS011;11252;50.596;17.648;2023-03-01T14:49:15;21.20;;;18.25;;
22172;SDS011;11252;50.596;17.648;2023-03-01T14:57:03;28.33;;;19.27;;
22172;SDS011;11252;50.596;17.648;2023-03-01T14:59:32;23.13;;;18.17;;
22172;SDS011;11252;50.596;17.648;2023-03-01T15:02:01;19.07;;;16.77;;
22172;SDS011;11252;50.596;17.648;2023-03-01T15:04:29;28.53;;;17.53;;
22172;SDS011;11252;50.596;17.648;2023-03-01T15:06:57;21.60;;;17.27;;
22172;SDS011;11252;50.596;17.648;2023-03-01T15:09:32;23.10;;;17.03;;
22172;SDS011;11252;50.596;17.648;2023-03-01T15:15:01;22.50;;;17.67;;
22172;SDS011;11252;50.596;17.648;2023-03-01T15:17:48;24.40;;;17.63;;
22172;SDS011;11252;50.596;17.648;2023-03-01T15:20:18;21.43;;;17.60;;
22172;SDS011;11252;50.596;17.648;2023-03-01T15:22:52;24.30;;;19.40;;
22172;SDS011;11252;50.596;17.648;2023-03-01T15:25:22;25.53;;;20.57;;
22172;SDS011;11252;50.596;17.648;2023-03-01T15:27:53;23.73;;;18.70;;
22172;SDS011;11252;50.596;17.648;2023-03-01T15:30:23;28.40;;;20.07;;
22172;SDS011;11252;50.596;17.648;2023-03-01T15:35:57;25.43;;;20.63;;
22172;SDS011;11252;50.596;17.648;2023-03-01T15:38:30;29.70;;;23.93;;
22172;SDS011;11252;50.596;17.648;2023-03-01T15:43:52;25.50;;;20.17;;
22172;SDS011;11252;50.596;17.648;2023-03-01T15:46:29;26.90;;;21.33;;
22172;SDS011;11252;50.596;17.648;2023-03-01T15:49:03;28.20;;;21.70;;
22172;SDS011;11252;50.596;17.648;2023-03-01T15:51:33;31.23;;;24.70;;
22172;SDS011;11252;50.596;17.648;2023-03-01T15:54:05;34.17;;;23.50;;
22172;SDS011;11252;50.596;17.648;2023-03-01T15:56:39;29.63;;;21.87;;
22172;SDS011;11252;50.596;17.648;2023-03-01T15:59:08;26.77;;;20.40;;
22172;SDS011;11252;50.596;17.648;2023-03-01T16:01:43;29.63;;;22.37;;
22172;SDS011;11252;50.596;17.648;2023-03-01T16:04:12;28.30;;;17.77;;
22172;SDS011;11252;50.596;17.648;2023-03-01T16:06:47;26.27;;;18.47;;
22172;SDS011;11252;50.596;17.648;2023-03-01T16:09:24;25.00;;;18.00;;
22172;SDS011;11252;50.596;17.648;2023-03-01T16:11:52;26.27;;;17.70;;
22172;SDS011;11252;50.596;17.648;2023-03-01T16:14:20;23.97;;;17.43;;
22172;SDS011;11252;50.596;17.648;2023-03-01T16:16:48;29.67;;;21.93;;
22172;SDS011;11252;50.596;17.648;2023-03-01T16:19:16;25.17;;;18.10;;
22172;SDS011;11252;50.596;17.648;2023-03-01T16:21:43;24.93;;;18.30;;
22172;SDS011;11252;50.596;17.648;2023-03-01T16:24:13;26.80;;;19.63;;
22172;SDS011;11252;50.596;17.648;2023-03-01T16:26:41;34.47;;;19.77;;
22172;SDS011;11252;50.596;17.648;2023-03-01T16:29:09;31.43;;;20.33;;